Kugluktuk Airport

CYCO | YCO

Kugluktuk , Nunavut , Canada

Saturday, June 6th, 2020 | 23:55

Weather

CYCO 070500Z 08011KT 15SM FEW050 BKN160 02/M00 A3027 RMK SC1AC4 SLP253

Charts

No Charts Available

Gates

No Gates Available

Runways

1 Available

Active ATC

Events -Coming Soon-

1 Events Coming Up Soon

Next event:
CYCO Flyout